createdAt,value
2023-05-09T00:01:47.518Z,14.34
2023-05-09T00:04:15.999Z,14.29
2023-05-09T00:06:42.397Z,14.31
2023-05-09T00:09:08.852Z,14.32
2023-05-09T00:11:35.182Z,14.13
2023-05-09T00:14:02.379Z,14.20
2023-05-09T00:16:28.725Z,14.21
2023-05-09T00:18:55.966Z,14.05
2023-05-09T00:21:22.319Z,14.16
2023-05-09T00:23:48.626Z,14.03
2023-05-09T00:26:15.776Z,14.14
2023-05-09T00:28:43.083Z,14.17
2023-05-09T00:31:09.411Z,14.12
2023-05-09T00:33:35.804Z,14.10
2023-05-09T00:36:02.142Z,14.21
2023-05-09T00:38:28.461Z,14.23
2023-05-09T00:40:54.776Z,14.12
2023-05-09T00:43:21.436Z,14.02
2023-05-09T00:45:48.076Z,13.93
2023-05-09T00:48:15.561Z,13.93
2023-05-09T00:50:42.418Z,13.81
2023-05-09T00:53:09.087Z,13.83
2023-05-09T00:55:35.871Z,13.76
2023-05-09T00:58:03.712Z,13.83
2023-05-09T01:00:30.131Z,13.87
2023-05-09T01:02:56.926Z,13.86
2023-05-09T01:05:29.293Z,13.88
2023-05-09T01:08:13.312Z,13.80
2023-05-09T01:10:47.646Z,13.63
2023-05-09T01:13:29.852Z,13.76
2023-05-09T01:16:08.472Z,13.64
2023-05-09T01:18:45.721Z,13.72
2023-05-09T01:21:17.213Z,13.88
2023-05-09T01:23:44.056Z,13.77
2023-05-09T01:26:52.091Z,13.88
2023-05-09T01:29:44.230Z,13.77
2023-05-09T01:32:15.878Z,13.74
2023-05-09T01:34:45.021Z,13.90
2023-05-09T01:37:15.478Z,13.79
2023-05-09T01:39:47.536Z,13.77
2023-05-09T01:42:16.536Z,13.58
2023-05-09T01:44:45.421Z,13.63
2023-05-09T01:47:12.712Z,13.78
2023-05-09T01:49:41.282Z,13.81
2023-05-09T01:52:11.152Z,13.85
2023-05-09T01:54:40.286Z,13.72
2023-05-09T01:57:07.976Z,13.72
2023-05-09T01:59:35.768Z,13.78
2023-05-09T02:02:03.964Z,13.66
2023-05-09T02:04:30.969Z,13.84
2023-05-09T02:06:58.940Z,13.82
2023-05-09T02:09:25.820Z,13.68
2023-05-09T02:11:52.230Z,13.69
2023-05-09T02:14:19.532Z,13.81
2023-05-09T02:16:45.993Z,13.69
2023-05-09T02:19:12.338Z,13.57
2023-05-09T02:21:38.922Z,13.53
2023-05-09T02:24:05.935Z,13.61
2023-05-09T02:26:33.158Z,13.56
2023-05-09T02:29:00.667Z,13.55
2023-05-09T02:31:29.560Z,13.59
2023-05-09T02:33:57.354Z,13.59
2023-05-09T02:36:24.251Z,13.71
2023-05-09T02:38:51.199Z,13.73
2023-05-09T02:41:17.511Z,13.68
2023-05-09T02:43:44.224Z,13.78
2023-05-09T02:46:10.859Z,13.83
2023-05-09T02:48:37.516Z,13.85
2023-05-09T02:51:04.814Z,13.68
2023-05-09T02:53:31.191Z,13.66
2023-05-09T02:55:57.513Z,13.79
2023-05-09T02:58:23.884Z,13.79
2023-05-09T03:00:50.824Z,13.63
2023-05-09T03:03:17.918Z,13.69
2023-05-09T03:05:45.012Z,13.75
2023-05-09T03:08:11.437Z,13.78
2023-05-09T03:10:37.883Z,13.63
2023-05-09T03:13:04.926Z,13.76
2023-05-09T03:15:32.081Z,13.71
2023-05-09T03:17:59.743Z,13.68
2023-05-09T03:20:27.301Z,13.55
2023-05-09T03:22:53.764Z,13.63
2023-05-09T03:25:20.483Z,13.51
2023-05-09T03:27:46.790Z,13.48
2023-05-09T03:30:15.068Z,13.67
2023-05-09T03:32:43.302Z,13.61
2023-05-09T03:35:09.920Z,13.58
2023-05-09T03:37:36.719Z,13.62
2023-05-09T03:40:05.722Z,13.46
2023-05-09T03:42:38.986Z,13.63
2023-05-09T03:45:05.687Z,13.67
2023-05-09T03:47:32.139Z,13.52
2023-05-09T03:49:58.711Z,13.47
2023-05-09T03:52:25.611Z,13.56
2023-05-09T03:54:51.964Z,13.53
2023-05-09T03:57:18.439Z,13.36
2023-05-09T03:59:47.015Z,13.54
2023-05-09T04:02:14.727Z,13.48
2023-05-09T04:04:41.168Z,13.60
2023-05-09T04:07:08.029Z,13.47
2023-05-09T04:09:34.697Z,13.51
2023-05-09T04:12:01.020Z,13.45
2023-05-09T04:14:27.404Z,13.53
2023-05-09T04:16:54.257Z,13.56
2023-05-09T04:19:20.739Z,13.64
2023-05-09T04:21:47.573Z,13.55
2023-05-09T04:24:13.948Z,13.49
2023-05-09T04:26:46.424Z,13.55
2023-05-09T04:29:16.304Z,13.57
2023-05-09T04:31:48.012Z,13.52
2023-05-09T04:34:15.681Z,13.67
2023-05-09T04:36:42.429Z,13.71
2023-05-09T04:39:10.235Z,13.59
2023-05-09T04:41:38.994Z,13.70
2023-05-09T04:44:05.416Z,13.68
2023-05-09T04:46:31.911Z,13.59
2023-05-09T04:48:58.310Z,13.69
2023-05-09T04:51:26.143Z,13.67
2023-05-09T04:53:52.475Z,13.68
2023-05-09T04:56:22.540Z,13.81
2023-05-09T04:58:51.252Z,13.78
2023-05-09T05:01:17.624Z,13.76
2023-05-09T05:03:45.896Z,13.88
2023-05-09T05:06:12.240Z,13.91
2023-05-09T05:08:40.476Z,13.87
2023-05-09T05:11:06.875Z,13.84
2023-05-09T05:13:33.832Z,13.92
2023-05-09T05:16:01.417Z,13.90
2023-05-09T05:18:27.816Z,13.87
2023-05-09T05:20:54.321Z,13.89
2023-05-09T05:23:20.930Z,13.94
2023-05-09T05:25:49.290Z,13.91
2023-05-09T05:28:16.015Z,13.96
2023-05-09T05:30:42.381Z,13.99
2023-05-09T05:33:08.743Z,14.00
2023-05-09T05:35:35.461Z,14.08
2023-05-09T05:38:01.887Z,14.18
2023-05-09T05:40:28.669Z,14.33
2023-05-09T05:42:55.977Z,14.30
2023-05-09T05:45:23.473Z,14.29
2023-05-09T05:47:54.280Z,14.22
2023-05-09T05:50:22.517Z,14.37
2023-05-09T05:52:49.014Z,14.41
2023-05-09T05:55:17.541Z,14.44
2023-05-09T05:57:45.652Z,14.47
2023-05-09T06:00:15.115Z,14.49
2023-05-09T06:02:47.719Z,14.56
2023-05-09T06:05:21.592Z,14.60
2023-05-09T06:07:48.064Z,14.67
2023-05-09T06:10:15.947Z,14.67
2023-05-09T06:12:43.426Z,14.68
2023-05-09T06:15:10.236Z,14.73
2023-05-09T06:17:40.811Z,14.71
2023-05-09T06:20:07.627Z,14.80
2023-05-09T06:22:34.322Z,14.83
2023-05-09T06:25:00.678Z,14.89
2023-05-09T06:27:27.038Z,14.88
2023-05-09T06:29:53.463Z,14.97
2023-05-09T06:32:19.805Z,15.00
2023-05-09T06:34:46.215Z,14.99
2023-05-09T06:37:12.582Z,15.05
2023-05-09T06:39:38.879Z,14.99
2023-05-09T06:42:05.370Z,15.05
2023-05-09T06:44:36.808Z,15.04
2023-05-09T06:47:03.111Z,15.03
2023-05-09T06:49:29.489Z,15.08
2023-05-09T06:51:55.803Z,15.08
2023-05-09T06:54:22.113Z,15.10
2023-05-09T06:56:48.465Z,15.13
2023-05-09T06:59:16.412Z,15.16
2023-05-09T07:01:43.025Z,15.15
2023-05-09T07:04:09.453Z,15.18
2023-05-09T07:06:35.952Z,15.30
2023-05-09T07:09:03.630Z,15.33
2023-05-09T07:11:37.411Z,15.39
2023-05-09T07:14:04.133Z,15.41
2023-05-09T07:16:30.508Z,15.50
2023-05-09T07:18:56.829Z,15.61
2023-05-09T07:21:23.197Z,15.70
2023-05-09T07:23:49.524Z,15.76
2023-05-09T07:26:15.848Z,15.79
2023-05-09T07:28:42.196Z,15.87
2023-05-09T07:31:09.296Z,15.97
2023-05-09T07:33:36.004Z,15.99
2023-05-09T07:36:02.750Z,16.01
2023-05-09T07:38:29.069Z,16.04
2023-05-09T07:40:55.371Z,16.12
2023-05-09T07:43:21.655Z,16.12
2023-05-09T07:45:48.057Z,15.94
2023-05-09T07:48:14.414Z,16.12
2023-05-09T07:50:40.777Z,16.19
2023-05-09T07:53:07.080Z,16.27
2023-05-09T07:55:33.403Z,16.29
2023-05-09T07:57:59.688Z,16.28
2023-05-09T08:00:26.018Z,16.30
2023-05-09T08:02:52.960Z,16.40
2023-05-09T08:05:19.924Z,16.47
2023-05-09T08:07:46.504Z,16.62
2023-05-09T08:10:12.942Z,16.80
2023-05-09T08:12:39.643Z,16.89
2023-05-09T08:15:06.727Z,16.96
2023-05-09T08:17:33.096Z,17.08
2023-05-09T08:19:59.446Z,17.26
2023-05-09T08:22:25.761Z,17.34
2023-05-09T08:24:52.260Z,17.39
2023-05-09T08:27:18.579Z,17.42
2023-05-09T08:29:45.426Z,17.55
2023-05-09T08:32:11.736Z,17.64
2023-05-09T08:34:38.148Z,17.66
2023-05-09T08:37:04.699Z,17.57
2023-05-09T08:39:31.439Z,17.39
2023-05-09T08:41:59.331Z,17.31
2023-05-09T08:44:27.792Z,17.29
2023-05-09T08:46:58.295Z,17.28
2023-05-09T08:49:25.508Z,17.17
2023-05-09T08:51:52.582Z,17.18
2023-05-09T08:54:20.664Z,17.16
2023-05-09T08:56:49.558Z,17.33
2023-05-09T08:59:17.177Z,17.38
2023-05-09T09:01:43.649Z,17.66
2023-05-09T09:04:11.883Z,17.82
2023-05-09T09:06:39.652Z,17.91
2023-05-09T09:09:08.916Z,17.79
2023-05-09T09:12:12.510Z,17.75
2023-05-09T09:14:54.278Z,17.66
2023-05-09T09:18:07.405Z,17.81
2023-05-09T09:23:32.572Z,17.74
2023-05-09T09:26:06.708Z,17.70
2023-05-09T09:28:33.628Z,17.76
2023-05-09T10:02:19.212Z,17.41
2023-05-09T10:08:06.969Z,17.49
2023-05-09T10:11:04.351Z,17.42
2023-05-09T10:13:38.325Z,17.45
2023-05-09T10:16:08.031Z,17.41
2023-05-09T10:18:43.380Z,17.42
2023-05-09T10:21:24.494Z,17.39
2023-05-09T10:27:19.115Z,17.44
2023-05-09T10:30:15.546Z,17.37
2023-05-09T10:32:56.628Z,17.40
2023-05-09T10:35:49.299Z,17.39
2023-05-09T10:38:21.650Z,17.51
2023-05-09T10:41:00.453Z,17.35
2023-05-09T10:43:39.837Z,17.32
2023-05-09T10:46:10.534Z,17.18
2023-05-09T10:48:47.258Z,17.15
2023-05-09T10:51:16.256Z,17.21
2023-05-09T10:54:02.338Z,17.12
2023-05-09T10:56:48.069Z,17.19
2023-05-09T10:59:38.376Z,17.15
2023-05-09T11:02:20.800Z,17.03
2023-05-09T11:04:55.612Z,16.92
2023-05-09T11:07:43.374Z,17.02
2023-05-09T11:10:21.950Z,17.15
2023-05-09T11:13:01.846Z,17.31
2023-05-09T11:15:33.156Z,17.44
2023-05-09T11:18:09.838Z,17.53
2023-05-09T11:20:44.448Z,17.58
2023-05-09T11:23:34.967Z,17.64
2023-05-09T11:26:08.546Z,17.61
2023-05-09T11:28:50.012Z,17.41
2023-05-09T11:31:22.184Z,17.41
2023-05-09T11:34:05.044Z,17.44
2023-05-09T11:36:58.372Z,17.44
2023-05-09T11:43:19.544Z,17.32
2023-05-09T11:46:11.797Z,17.40
2023-05-09T12:03:41.689Z,18.83
2023-05-09T12:06:32.983Z,18.88
2023-05-09T12:09:02.534Z,18.91
2023-05-09T12:11:32.247Z,18.90
2023-05-09T12:14:05.021Z,19.03
2023-05-09T12:16:55.930Z,19.22
2023-05-09T12:19:41.244Z,19.12
2023-05-09T12:22:19.274Z,19.08
2023-05-09T12:24:53.043Z,18.93
2023-05-09T12:27:21.269Z,18.90
2023-05-09T12:29:48.722Z,18.75
2023-05-09T12:32:21.005Z,18.64
2023-05-09T12:34:57.424Z,18.55
2023-05-09T12:37:23.906Z,18.56
2023-05-09T12:40:26.108Z,18.25
2023-05-09T12:42:54.254Z,18.22
2023-05-09T12:45:21.161Z,18.08
2023-05-09T12:47:51.834Z,17.98
2023-05-09T12:50:21.349Z,17.94
2023-05-09T12:53:02.723Z,18.01
2023-05-09T12:55:41.097Z,18.03
2023-05-09T12:58:09.963Z,17.92
2023-05-09T13:00:45.008Z,17.77
2023-05-09T13:03:31.737Z,17.77
2023-05-09T13:06:02.345Z,17.70
2023-05-09T13:08:29.748Z,17.66
2023-05-09T13:11:14.857Z,17.57
2023-05-09T13:13:51.654Z,17.51
2023-05-09T13:16:19.805Z,17.56
2023-05-09T13:18:52.386Z,17.56
2023-05-09T13:21:19.234Z,17.40
2023-05-09T13:23:45.798Z,17.43
2023-05-09T13:26:12.284Z,17.39
2023-05-09T13:28:39.300Z,17.18
2023-05-09T13:31:06.654Z,17.27
2023-05-09T13:33:36.809Z,17.21
2023-05-09T13:36:09.260Z,17.15
2023-05-09T13:38:38.751Z,17.13
2023-05-09T13:41:05.891Z,17.13
2023-05-09T13:43:32.173Z,17.11
2023-05-09T13:45:58.595Z,17.16
2023-05-09T13:48:25.011Z,17.19
2023-05-09T13:50:51.675Z,17.25
2023-05-09T13:53:18.043Z,17.23
2023-05-09T13:55:45.405Z,17.22
2023-05-09T13:58:12.520Z,17.25
2023-05-09T14:00:38.811Z,17.20
2023-05-09T14:03:05.375Z,17.27
2023-05-09T14:05:32.008Z,17.27
2023-05-09T14:07:58.407Z,17.22
2023-05-09T14:10:26.610Z,17.20
2023-05-09T14:12:53.947Z,17.18
2023-05-09T14:15:20.509Z,17.16
2023-05-09T14:17:46.976Z,17.22
2023-05-09T14:20:15.575Z,17.25
2023-05-09T14:22:42.593Z,17.22
2023-05-09T14:25:09.200Z,17.29
2023-05-09T14:27:38.339Z,17.31
2023-05-09T14:30:05.036Z,17.31
2023-05-09T14:32:31.574Z,17.29
2023-05-09T14:34:58.030Z,17.35
2023-05-09T14:37:24.381Z,17.34
2023-05-09T14:39:50.801Z,17.38
2023-05-09T14:42:17.245Z,17.42
2023-05-09T14:44:44.642Z,17.43
2023-05-09T14:47:11.054Z,17.50
2023-05-09T14:49:39.698Z,17.50
2023-05-09T14:52:06.026Z,17.40
2023-05-09T14:54:32.537Z,17.44
2023-05-09T14:56:59.472Z,17.47
2023-05-09T14:59:25.857Z,17.45
2023-05-09T15:01:52.591Z,17.46
2023-05-09T15:04:19.018Z,17.48
2023-05-09T15:06:45.777Z,17.44
2023-05-09T15:09:12.917Z,17.43
2023-05-09T15:11:47.415Z,17.37
2023-05-09T15:14:15.089Z,17.37
2023-05-09T15:16:41.734Z,17.35
2023-05-09T15:19:09.199Z,17.37
2023-05-09T15:21:35.818Z,17.35
2023-05-09T15:24:02.485Z,17.26
2023-05-09T15:26:29.143Z,17.24
2023-05-09T15:28:55.468Z,17.27
2023-05-09T15:31:23.215Z,17.30
2023-05-09T15:33:49.556Z,17.25
2023-05-09T15:36:16.232Z,17.18
2023-05-09T15:38:42.606Z,17.25
2023-05-09T15:41:09.213Z,17.20
2023-05-09T15:43:35.493Z,17.20
2023-05-09T15:46:02.390Z,17.16
2023-05-09T15:48:28.784Z,17.18
2023-05-09T15:50:55.103Z,17.15
2023-05-09T15:53:23.321Z,17.13
2023-05-09T15:55:49.909Z,17.13
2023-05-09T15:58:16.376Z,17.13
2023-05-09T16:00:42.766Z,17.15
2023-05-09T16:03:09.338Z,17.13
2023-05-09T16:05:35.785Z,17.14
2023-05-09T16:08:02.232Z,17.13
2023-05-09T16:10:28.530Z,17.09
2023-05-09T16:12:54.929Z,17.04
2023-05-09T16:15:21.359Z,16.99
2023-05-09T16:17:47.761Z,17.01
2023-05-09T16:20:14.297Z,17.03
2023-05-09T16:22:41.619Z,16.99
2023-05-09T16:25:08.600Z,16.96
2023-05-09T16:27:34.990Z,16.90
2023-05-09T16:30:01.680Z,16.87
2023-05-09T16:32:28.183Z,16.88
2023-05-09T16:34:54.534Z,16.87
2023-05-09T16:37:20.843Z,16.88
2023-05-09T16:39:47.346Z,16.84
2023-05-09T16:42:13.662Z,16.84
2023-05-09T16:44:40.043Z,16.86
2023-05-09T16:47:06.893Z,16.84
2023-05-09T16:49:33.252Z,16.82
2023-05-09T16:51:59.767Z,16.88
2023-05-09T16:54:26.068Z,16.87
2023-05-09T16:56:52.486Z,16.76
2023-05-09T16:59:19.971Z,16.77
2023-05-09T17:01:47.470Z,16.75
2023-05-09T17:04:14.464Z,16.75
2023-05-09T17:06:40.970Z,16.75
2023-05-09T17:09:07.566Z,16.73
2023-05-09T17:11:33.987Z,16.64
2023-05-09T17:14:02.310Z,16.62
2023-05-09T17:16:28.956Z,16.60
2023-05-09T17:18:55.387Z,16.64
2023-05-09T17:21:22.865Z,16.68
2023-05-09T17:23:49.189Z,16.63
2023-05-09T17:26:15.553Z,16.51
2023-05-09T17:28:41.898Z,16.51
2023-05-09T17:31:08.345Z,16.59
2023-05-09T17:33:34.741Z,16.54
2023-05-09T17:36:01.475Z,16.55
2023-05-09T17:38:27.878Z,16.52
2023-05-09T17:40:54.293Z,16.52
2023-05-09T17:43:21.604Z,16.50
2023-05-09T17:45:48.005Z,16.50
2023-05-09T17:48:14.454Z,16.54
2023-05-09T17:50:40.916Z,16.51
2023-05-09T17:53:09.323Z,16.51
2023-05-09T17:55:36.010Z,16.46
2023-05-09T17:58:02.508Z,16.53
2023-05-09T18:00:29.199Z,16.41
2023-05-09T18:02:57.704Z,16.41
2023-05-09T18:05:26.210Z,16.34
2023-05-09T18:07:53.525Z,16.36
2023-05-09T18:10:20.535Z,16.27
2023-05-09T18:12:47.338Z,16.22
2023-05-09T18:15:14.029Z,16.30
2023-05-09T18:17:40.593Z,16.22
2023-05-09T18:20:08.455Z,16.14
2023-05-09T18:22:34.791Z,16.21
2023-05-09T18:25:01.121Z,16.09
2023-05-09T18:27:27.440Z,16.06
2023-05-09T18:29:54.062Z,16.05
2023-05-09T18:32:20.655Z,16.11
2023-05-09T18:34:48.321Z,15.98
2023-05-09T18:37:14.695Z,16.01
2023-05-09T18:39:41.016Z,15.92
2023-05-09T18:42:07.439Z,15.88
2023-05-09T18:44:33.804Z,15.88
2023-05-09T18:47:00.365Z,15.93
2023-05-09T18:49:26.973Z,15.87
2023-05-09T18:51:53.361Z,15.96
2023-05-09T18:54:19.724Z,16.02
2023-05-09T18:56:46.559Z,16.02
2023-05-09T18:59:16.050Z,15.88
2023-05-09T19:01:43.836Z,15.73
2023-05-09T19:04:10.220Z,15.83
2023-05-09T19:06:36.696Z,15.79
2023-05-09T19:09:04.211Z,15.87
2023-05-09T19:11:30.606Z,15.72
2023-05-09T19:13:56.962Z,15.65
2023-05-09T19:16:24.598Z,15.62
2023-05-09T19:18:51.243Z,15.75
2023-05-09T19:21:18.630Z,15.69
2023-05-09T19:23:47.641Z,15.81
2023-05-09T19:26:15.348Z,15.74
2023-05-09T19:28:42.386Z,15.73
2023-05-09T19:31:10.023Z,15.63
2023-05-09T19:33:36.427Z,15.72
2023-05-09T19:36:02.927Z,15.57
2023-05-09T19:38:30.448Z,15.66
2023-05-09T19:40:56.799Z,15.72
2023-05-09T19:43:23.150Z,15.70
2023-05-09T19:45:49.523Z,15.68
2023-05-09T19:48:15.890Z,15.66
2023-05-09T19:50:43.169Z,15.65
2023-05-09T19:53:09.660Z,15.60
2023-05-09T19:55:36.619Z,15.61
2023-05-09T19:58:03.293Z,15.73
2023-05-09T20:00:29.611Z,15.71
2023-05-09T20:02:55.994Z,15.68
2023-05-09T20:05:22.326Z,15.52
2023-05-09T20:07:49.319Z,15.58
2023-05-09T20:10:16.143Z,15.60
2023-05-09T20:12:43.359Z,15.65
2023-05-09T20:15:10.083Z,15.63
2023-05-09T20:17:36.505Z,15.61
2023-05-09T20:20:04.084Z,15.51
2023-05-09T20:22:30.414Z,15.51
2023-05-09T20:24:56.749Z,15.37
2023-05-09T20:27:23.504Z,15.41
2023-05-09T20:29:49.833Z,15.51
2023-05-09T20:32:16.136Z,15.41
2023-05-09T20:34:42.463Z,15.35
2023-05-09T20:37:08.924Z,15.47
2023-05-09T20:39:35.358Z,15.54
2023-05-09T20:42:02.312Z,15.50
2023-05-09T20:44:29.068Z,15.37
2023-05-09T20:46:55.609Z,15.50
2023-05-09T20:49:22.652Z,15.48
2023-05-09T20:51:49.073Z,15.43
2023-05-09T20:54:17.494Z,15.39
2023-05-09T20:56:43.774Z,15.37
2023-05-09T20:59:10.120Z,15.44
2023-05-09T21:01:36.652Z,15.40
2023-05-09T21:04:08.163Z,15.39
2023-05-09T21:06:36.032Z,15.26
2023-05-09T21:09:03.234Z,15.20
2023-05-09T21:11:30.123Z,15.26
2023-05-09T21:13:56.543Z,15.28
2023-05-09T21:22:43.508Z,15.30
2023-05-09T21:25:10.025Z,15.26
2023-05-09T21:27:36.316Z,15.20
2023-05-09T21:30:02.689Z,15.16
2023-05-09T21:32:29.047Z,15.12
2023-05-09T21:34:55.501Z,15.05
2023-05-09T21:37:21.836Z,14.98
2023-05-09T21:39:48.197Z,15.02
2023-05-09T21:42:14.625Z,15.05
2023-05-09T21:44:41.023Z,14.96
2023-05-09T21:47:07.418Z,14.87
2023-05-09T21:49:33.812Z,14.84
2023-05-09T21:52:00.186Z,14.84
2023-05-09T21:54:26.489Z,14.83
2023-05-09T21:56:52.771Z,14.73
2023-05-09T21:59:20.720Z,14.72
2023-05-09T22:01:47.050Z,14.60
2023-05-09T22:04:13.395Z,14.63
2023-05-09T22:06:41.564Z,14.61
2023-05-09T22:09:09.084Z,14.53
2023-05-09T22:11:35.560Z,14.53
2023-05-09T22:14:01.916Z,14.45
2023-05-09T22:16:28.724Z,14.33
2023-05-09T22:18:55.713Z,14.30
2023-05-09T22:21:22.016Z,14.24
2023-05-09T22:23:48.319Z,14.25
2023-05-09T22:26:14.621Z,14.21
2023-05-09T22:28:40.983Z,14.12
2023-05-09T22:31:07.619Z,14.17
2023-05-09T22:33:34.343Z,14.19
2023-05-09T22:36:01.039Z,14.25
2023-05-09T22:38:27.353Z,14.26
2023-05-09T22:40:53.627Z,14.20
2023-05-09T22:43:20.207Z,14.07
2023-05-09T22:45:46.550Z,14.00
2023-05-09T22:48:12.872Z,14.10
2023-05-09T22:50:39.153Z,14.12
2023-05-09T22:53:05.463Z,13.95
2023-05-09T22:55:31.807Z,13.95
2023-05-09T22:57:58.092Z,13.92
2023-05-09T23:00:24.380Z,13.95
2023-05-09T23:02:50.949Z,13.89
2023-05-09T23:05:17.386Z,13.96
2023-05-09T23:07:44.524Z,13.89
2023-05-09T23:10:10.881Z,13.99
2023-05-09T23:12:37.995Z,14.01
2023-05-09T23:15:06.272Z,14.05
2023-05-09T23:17:32.630Z,14.02
2023-05-09T23:20:00.535Z,14.03
2023-05-09T23:22:26.987Z,14.05
2023-05-09T23:24:53.355Z,14.07
2023-05-09T23:27:19.637Z,14.01
2023-05-09T23:29:45.932Z,13.95
2023-05-09T23:32:12.269Z,13.98
2023-05-09T23:34:38.807Z,13.90
2023-05-09T23:37:05.139Z,13.89
2023-05-09T23:39:31.582Z,13.90
2023-05-09T23:41:58.135Z,13.84
2023-05-09T23:44:25.438Z,13.88
2023-05-09T23:46:51.841Z,13.92
2023-05-09T23:49:18.199Z,13.93
2023-05-09T23:51:44.517Z,13.88
2023-05-09T23:54:10.797Z,13.78
2023-05-09T23:56:37.218Z,13.86
2023-05-09T23:59:03.520Z,13.86
